sensor_id;sensor_type;location;lat;lon;timestamp;P1;durP1;ratioP1;P2;durP2;ratioP2
11911;SDS011;6016;41.928;25.556;2023-11-25T00:01:10;11.57;;;4.20;;
11911;SDS011;6016;41.928;25.556;2023-11-25T00:03:37;9.80;;;3.40;;
11911;SDS011;6016;41.928;25.556;2023-11-25T00:06:04;9.80;;;3.30;;
11911;SDS011;6016;41.928;25.556;2023-11-25T00:08:31;5.38;;;2.75;;
11911;SDS011;6016;41.928;25.556;2023-11-25T00:10:58;8.27;;;2.50;;
11911;SDS011;6016;41.928;25.556;2023-11-25T00:13:25;6.32;;;2.75;;
11911;SDS011;6016;41.928;25.556;2023-11-25T00:15:52;5.18;;;2.17;;
11911;SDS011;6016;41.928;25.556;2023-11-25T00:18:21;3.80;;;2.20;;
11911;SDS011;6016;41.928;25.556;2023-11-25T00:20:49;5.90;;;2.45;;
11911;SDS011;6016;41.928;25.556;2023-11-25T00:23:17;4.68;;;2.30;;
11911;SDS011;6016;41.928;25.556;2023-11-25T00:25:44;3.47;;;1.88;;
11911;SDS011;6016;41.928;25.556;2023-11-25T00:28:11;6.00;;;2.42;;
11911;SDS011;6016;41.928;25.556;2023-11-25T00:30:37;3.30;;;2.17;;
11911;SDS011;6016;41.928;25.556;2023-11-25T00:33:04;4.60;;;2.05;;
11911;SDS011;6016;41.928;25.556;2023-11-25T00:35:33;3.45;;;1.80;;
11911;SDS011;6016;41.928;25.556;2023-11-25T00:38:00;4.30;;;1.70;;
11911;SDS011;6016;41.928;25.556;2023-11-25T00:40:27;8.02;;;2.13;;
11911;SDS011;6016;41.928;25.556;2023-11-25T00:42:54;7.80;;;2.22;;
11911;SDS011;6016;41.928;25.556;2023-11-25T00:45:22;6.20;;;2.20;;
11911;SDS011;6016;41.928;25.556;2023-11-25T00:47:51;3.80;;;2.13;;
11911;SDS011;6016;41.928;25.556;2023-11-25T00:50:21;5.68;;;2.20;;
11911;SDS011;6016;41.928;25.556;2023-11-25T00:52:51;6.35;;;1.90;;
11911;SDS011;6016;41.928;25.556;2023-11-25T00:55:19;4.85;;;2.40;;
11911;SDS011;6016;41.928;25.556;2023-11-25T00:57:46;9.70;;;2.85;;
11911;SDS011;6016;41.928;25.556;2023-11-25T01:00:13;5.40;;;1.88;;
11911;SDS011;6016;41.928;25.556;2023-11-25T01:02:42;4.13;;;1.80;;
11911;SDS011;6016;41.928;25.556;2023-11-25T01:05:09;5.57;;;2.15;;
11911;SDS011;6016;41.928;25.556;2023-11-25T01:07:36;6.32;;;2.20;;
11911;SDS011;6016;41.928;25.556;2023-11-25T01:10:05;5.63;;;1.83;;
11911;SDS011;6016;41.928;25.556;2023-11-25T01:12:33;5.15;;;1.70;;
11911;SDS011;6016;41.928;25.556;2023-11-25T01:15:00;5.43;;;2.10;;
11911;SDS011;6016;41.928;25.556;2023-11-25T01:17:29;3.05;;;1.73;;
11911;SDS011;6016;41.928;25.556;2023-11-25T01:19:56;3.13;;;1.70;;
11911;SDS011;6016;41.928;25.556;2023-11-25T01:22:24;6.82;;;1.98;;
11911;SDS011;6016;41.928;25.556;2023-11-25T01:24:51;5.25;;;1.80;;
11911;SDS011;6016;41.928;25.556;2023-11-25T01:27:19;3.55;;;1.80;;
11911;SDS011;6016;41.928;25.556;2023-11-25T01:29:48;2.63;;;1.55;;
11911;SDS011;6016;41.928;25.556;2023-11-25T01:32:15;3.38;;;1.60;;
11911;SDS011;6016;41.928;25.556;2023-11-25T01:34:42;5.07;;;1.60;;
11911;SDS011;6016;41.928;25.556;2023-11-25T01:37:09;7.30;;;2.03;;
11911;SDS011;6016;41.928;25.556;2023-11-25T01:39:40;4.47;;;1.70;;
11911;SDS011;6016;41.928;25.556;2023-11-25T01:42:08;2.05;;;1.60;;
11911;SDS011;6016;41.928;25.556;2023-11-25T01:44:36;2.40;;;2.00;;
11911;SDS011;6016;41.928;25.556;2023-11-25T01:47:03;5.30;;;2.00;;
11911;SDS011;6016;41.928;25.556;2023-11-25T01:49:30;4.53;;;2.03;;
11911;SDS011;6016;41.928;25.556;2023-11-25T01:51:58;4.25;;;1.92;;
11911;SDS011;6016;41.928;25.556;2023-11-25T01:54:25;4.20;;;2.13;;
11911;SDS011;6016;41.928;25.556;2023-11-25T01:56:53;3.03;;;1.90;;
11911;SDS011;6016;41.928;25.556;2023-11-25T01:59:24;5.43;;;1.83;;
11911;SDS011;6016;41.928;25.556;2023-11-25T02:01:53;5.18;;;1.80;;
11911;SDS011;6016;41.928;25.556;2023-11-25T02:04:20;2.35;;;1.65;;
11911;SDS011;6016;41.928;25.556;2023-11-25T02:06:47;4.07;;;2.17;;
11911;SDS011;6016;41.928;25.556;2023-11-25T02:09:15;3.20;;;1.48;;
11911;SDS011;6016;41.928;25.556;2023-11-25T02:11:58;3.63;;;1.58;;
11911;SDS011;6016;41.928;25.556;2023-11-25T02:14:26;5.85;;;1.67;;
11911;SDS011;6016;41.928;25.556;2023-11-25T02:16:55;2.60;;;1.50;;
11911;SDS011;6016;41.928;25.556;2023-11-25T02:19:23;6.03;;;2.13;;
11911;SDS011;6016;41.928;25.556;2023-11-25T02:21:51;3.40;;;1.90;;
11911;SDS011;6016;41.928;25.556;2023-11-25T02:24:19;4.72;;;1.50;;
11911;SDS011;6016;41.928;25.556;2023-11-25T02:26:47;5.35;;;1.60;;
11911;SDS011;6016;41.928;25.556;2023-11-25T02:29:23;8.30;;;1.95;;
11911;SDS011;6016;41.928;25.556;2023-11-25T02:31:50;6.38;;;2.10;;
11911;SDS011;6016;41.928;25.556;2023-11-25T02:34:17;4.20;;;1.77;;
11911;SDS011;6016;41.928;25.556;2023-11-25T02:36:45;4.25;;;1.90;;
11911;SDS011;6016;41.928;25.556;2023-11-25T02:39:13;3.58;;;1.77;;
11911;SDS011;6016;41.928;25.556;2023-11-25T02:41:46;5.35;;;1.50;;
11911;SDS011;6016;41.928;25.556;2023-11-25T02:44:15;4.68;;;1.70;;
11911;SDS011;6016;41.928;25.556;2023-11-25T02:46:42;4.22;;;1.92;;
11911;SDS011;6016;41.928;25.556;2023-11-25T02:49:10;3.05;;;1.60;;
11911;SDS011;6016;41.928;25.556;2023-11-25T02:51:38;2.58;;;1.35;;
11911;SDS011;6016;41.928;25.556;2023-11-25T02:54:05;4.35;;;1.50;;
11911;SDS011;6016;41.928;25.556;2023-11-25T02:56:32;5.03;;;1.48;;
11911;SDS011;6016;41.928;25.556;2023-11-25T02:59:01;2.75;;;1.58;;
11911;SDS011;6016;41.928;25.556;2023-11-25T03:01:28;2.25;;;1.60;;
11911;SDS011;6016;41.928;25.556;2023-11-25T03:03:56;3.53;;;1.58;;
11911;SDS011;6016;41.928;25.556;2023-11-25T03:06:26;3.22;;;1.80;;
11911;SDS011;6016;41.928;25.556;2023-11-25T03:08:56;5.30;;;1.20;;
11911;SDS011;6016;41.928;25.556;2023-11-25T03:11:24;3.63;;;1.33;;
11911;SDS011;6016;41.928;25.556;2023-11-25T03:13:51;3.30;;;1.40;;
11911;SDS011;6016;41.928;25.556;2023-11-25T03:16:20;4.40;;;1.40;;
11911;SDS011;6016;41.928;25.556;2023-11-25T03:18:49;2.83;;;1.10;;
11911;SDS011;6016;41.928;25.556;2023-11-25T03:21:17;1.65;;;1.40;;
11911;SDS011;6016;41.928;25.556;2023-11-25T03:23:45;2.50;;;1.60;;
11911;SDS011;6016;41.928;25.556;2023-11-25T03:26:13;3.90;;;1.73;;
11911;SDS011;6016;41.928;25.556;2023-11-25T03:28:40;2.60;;;1.40;;
11911;SDS011;6016;41.928;25.556;2023-11-25T03:31:07;3.53;;;1.35;;
11911;SDS011;6016;41.928;25.556;2023-11-25T03:33:36;4.55;;;1.30;;
11911;SDS011;6016;41.928;25.556;2023-11-25T03:36:03;5.18;;;1.40;;
11911;SDS011;6016;41.928;25.556;2023-11-25T03:38:30;4.47;;;1.42;;
11911;SDS011;6016;41.928;25.556;2023-11-25T03:40:57;5.53;;;1.20;;
11911;SDS011;6016;41.928;25.556;2023-11-25T03:43:24;2.85;;;1.17;;
11911;SDS011;6016;41.928;25.556;2023-11-25T03:45:51;2.65;;;1.08;;
11911;SDS011;6016;41.928;25.556;2023-11-25T03:48:18;2.72;;;1.10;;
11911;SDS011;6016;41.928;25.556;2023-11-25T03:50:46;4.90;;;3.67;;
11911;SDS011;6016;41.928;25.556;2023-11-25T03:53:13;4.82;;;1.52;;
11911;SDS011;6016;41.928;25.556;2023-11-25T03:55:41;2.08;;;1.23;;
11911;SDS011;6016;41.928;25.556;2023-11-25T03:58:08;1.50;;;1.25;;
11911;SDS011;6016;41.928;25.556;2023-11-25T04:00:36;2.53;;;1.00;;
11911;SDS011;6016;41.928;25.556;2023-11-25T04:03:03;4.65;;;1.30;;
11911;SDS011;6016;41.928;25.556;2023-11-25T04:05:30;5.90;;;1.70;;
11911;SDS011;6016;41.928;25.556;2023-11-25T04:07:59;5.47;;;1.55;;
11911;SDS011;6016;41.928;25.556;2023-11-25T04:10:26;3.83;;;1.33;;
11911;SDS011;6016;41.928;25.556;2023-11-25T04:12:53;3.75;;;1.40;;
11911;SDS011;6016;41.928;25.556;2023-11-25T04:15:21;2.25;;;1.20;;
11911;SDS011;6016;41.928;25.556;2023-11-25T04:17:48;3.13;;;1.30;;
11911;SDS011;6016;41.928;25.556;2023-11-25T04:20:16;6.80;;;1.80;;
11911;SDS011;6016;41.928;25.556;2023-11-25T04:22:49;5.20;;;1.77;;
11911;SDS011;6016;41.928;25.556;2023-11-25T04:25:18;2.50;;;1.35;;
11911;SDS011;6016;41.928;25.556;2023-11-25T04:27:46;2.30;;;1.40;;
11911;SDS011;6016;41.928;25.556;2023-11-25T04:30:14;2.67;;;1.42;;
11911;SDS011;6016;41.928;25.556;2023-11-25T04:32:42;3.53;;;1.30;;
11911;SDS011;6016;41.928;25.556;2023-11-25T04:35:11;2.47;;;1.33;;
11911;SDS011;6016;41.928;25.556;2023-11-25T04:37:40;7.75;;;2.38;;
11911;SDS011;6016;41.928;25.556;2023-11-25T04:40:09;3.20;;;1.60;;
11911;SDS011;6016;41.928;25.556;2023-11-25T04:42:39;5.70;;;2.20;;
11911;SDS011;6016;41.928;25.556;2023-11-25T04:45:07;3.78;;;1.80;;
11911;SDS011;6016;41.928;25.556;2023-11-25T04:47:41;6.72;;;1.77;;
11911;SDS011;6016;41.928;25.556;2023-11-25T04:50:10;3.35;;;1.88;;
11911;SDS011;6016;41.928;25.556;2023-11-25T04:52:37;4.00;;;1.55;;
11911;SDS011;6016;41.928;25.556;2023-11-25T04:55:04;3.75;;;1.30;;
11911;SDS011;6016;41.928;25.556;2023-11-25T04:57:34;2.85;;;1.42;;
11911;SDS011;6016;41.928;25.556;2023-11-25T05:00:02;7.60;;;2.47;;
11911;SDS011;6016;41.928;25.556;2023-11-25T05:02:34;10.00;;;2.80;;
11911;SDS011;6016;41.928;25.556;2023-11-25T05:05:02;6.50;;;2.17;;
11911;SDS011;6016;41.928;25.556;2023-11-25T05:07:30;3.50;;;1.90;;
11911;SDS011;6016;41.928;25.556;2023-11-25T05:09:57;2.95;;;1.58;;
11911;SDS011;6016;41.928;25.556;2023-11-25T05:12:24;4.43;;;1.75;;
11911;SDS011;6016;41.928;25.556;2023-11-25T05:14:51;3.97;;;1.70;;
11911;SDS011;6016;41.928;25.556;2023-11-25T05:17:20;3.97;;;1.98;;
11911;SDS011;6016;41.928;25.556;2023-11-25T05:19:47;6.05;;;2.20;;
11911;SDS011;6016;41.928;25.556;2023-11-25T05:22:15;2.83;;;1.73;;
11911;SDS011;6016;41.928;25.556;2023-11-25T05:24:41;5.95;;;1.95;;
11911;SDS011;6016;41.928;25.556;2023-11-25T05:27:08;4.68;;;1.92;;
11911;SDS011;6016;41.928;25.556;2023-11-25T05:29:36;5.65;;;1.80;;
11911;SDS011;6016;41.928;25.556;2023-11-25T05:32:03;6.53;;;2.60;;
11911;SDS011;6016;41.928;25.556;2023-11-25T05:34:34;7.88;;;2.60;;
11911;SDS011;6016;41.928;25.556;2023-11-25T05:37:01;4.90;;;2.17;;
11911;SDS011;6016;41.928;25.556;2023-11-25T05:39:29;6.18;;;2.45;;
11911;SDS011;6016;41.928;25.556;2023-11-25T05:41:56;7.15;;;4.07;;
11911;SDS011;6016;41.928;25.556;2023-11-25T05:44:23;7.95;;;3.25;;
11911;SDS011;6016;41.928;25.556;2023-11-25T05:46:52;4.40;;;1.98;;
11911;SDS011;6016;41.928;25.556;2023-11-25T05:49:20;5.72;;;2.08;;
11911;SDS011;6016;41.928;25.556;2023-11-25T05:51:49;4.93;;;2.05;;
11911;SDS011;6016;41.928;25.556;2023-11-25T05:54:16;4.25;;;2.30;;
11911;SDS011;6016;41.928;25.556;2023-11-25T05:56:44;7.65;;;2.78;;
11911;SDS011;6016;41.928;25.556;2023-11-25T05:59:13;5.93;;;2.20;;
11911;SDS011;6016;41.928;25.556;2023-11-25T06:01:41;7.93;;;2.80;;
11911;SDS011;6016;41.928;25.556;2023-11-25T06:04:08;5.00;;;2.80;;
11911;SDS011;6016;41.928;25.556;2023-11-25T06:06:35;6.40;;;2.85;;
11911;SDS011;6016;41.928;25.556;2023-11-25T06:09:05;8.38;;;3.15;;
11911;SDS011;6016;41.928;25.556;2023-11-25T06:11:36;6.15;;;2.38;;
11911;SDS011;6016;41.928;25.556;2023-11-25T06:14:04;6.22;;;2.50;;
11911;SDS011;6016;41.928;25.556;2023-11-25T06:16:31;4.50;;;2.20;;
11911;SDS011;6016;41.928;25.556;2023-11-25T06:18:59;5.88;;;2.28;;
11911;SDS011;6016;41.928;25.556;2023-11-25T06:21:29;7.38;;;2.42;;
11911;SDS011;6016;41.928;25.556;2023-11-25T06:23:56;5.38;;;2.95;;
11911;SDS011;6016;41.928;25.556;2023-11-25T06:26:26;5.47;;;2.35;;
11911;SDS011;6016;41.928;25.556;2023-11-25T06:28:54;5.18;;;2.38;;
11911;SDS011;6016;41.928;25.556;2023-11-25T06:31:21;5.50;;;2.50;;
11911;SDS011;6016;41.928;25.556;2023-11-25T06:33:48;3.95;;;2.20;;
11911;SDS011;6016;41.928;25.556;2023-11-25T06:36:17;8.35;;;2.55;;
11911;SDS011;6016;41.928;25.556;2023-11-25T06:38:44;6.90;;;2.10;;
11911;SDS011;6016;41.928;25.556;2023-11-25T06:41:11;6.18;;;2.25;;
11911;SDS011;6016;41.928;25.556;2023-11-25T06:43:39;5.10;;;2.90;;
11911;SDS011;6016;41.928;25.556;2023-11-25T06:46:09;5.70;;;2.83;;
11911;SDS011;6016;41.928;25.556;2023-11-25T06:48:36;11.05;;;3.10;;
11911;SDS011;6016;41.928;25.556;2023-11-25T06:51:04;7.80;;;2.70;;
11911;SDS011;6016;41.928;25.556;2023-11-25T06:53:31;5.82;;;2.92;;
11911;SDS011;6016;41.928;25.556;2023-11-25T06:55:58;8.05;;;2.40;;
11911;SDS011;6016;41.928;25.556;2023-11-25T06:58:25;4.53;;;2.38;;
11911;SDS011;6016;41.928;25.556;2023-11-25T07:00:54;6.07;;;2.42;;
11911;SDS011;6016;41.928;25.556;2023-11-25T07:03:22;8.32;;;2.80;;
11911;SDS011;6016;41.928;25.556;2023-11-25T07:05:50;6.80;;;2.70;;
11911;SDS011;6016;41.928;25.556;2023-11-25T07:08:17;7.32;;;2.78;;
11911;SDS011;6016;41.928;25.556;2023-11-25T07:10:43;6.90;;;3.85;;
11911;SDS011;6016;41.928;25.556;2023-11-25T07:13:19;7.47;;;2.90;;
11911;SDS011;6016;41.928;25.556;2023-11-25T07:15:46;9.50;;;2.75;;
11911;SDS011;6016;41.928;25.556;2023-11-25T07:18:15;5.95;;;3.55;;
11911;SDS011;6016;41.928;25.556;2023-11-25T07:20:44;5.00;;;2.80;;
11911;SDS011;6016;41.928;25.556;2023-11-25T07:23:11;10.57;;;3.25;;
11911;SDS011;6016;41.928;25.556;2023-11-25T07:25:39;11.18;;;3.17;;
11911;SDS011;6016;41.928;25.556;2023-11-25T07:28:10;8.50;;;3.33;;
11911;SDS011;6016;41.928;25.556;2023-11-25T07:30:37;10.35;;;3.40;;
11911;SDS011;6016;41.928;25.556;2023-11-25T07:33:07;7.20;;;2.78;;
11911;SDS011;6016;41.928;25.556;2023-11-25T07:35:36;7.80;;;2.90;;
11911;SDS011;6016;41.928;25.556;2023-11-25T07:38:03;8.18;;;3.30;;
11911;SDS011;6016;41.928;25.556;2023-11-25T07:40:30;5.30;;;2.47;;
11911;SDS011;6016;41.928;25.556;2023-11-25T07:42:56;6.28;;;2.47;;
11911;SDS011;6016;41.928;25.556;2023-11-25T07:45:24;7.55;;;2.38;;
11911;SDS011;6016;41.928;25.556;2023-11-25T07:47:51;8.95;;;2.20;;
11911;SDS011;6016;41.928;25.556;2023-11-25T07:50:18;6.78;;;2.90;;
11911;SDS011;6016;41.928;25.556;2023-11-25T07:52:49;54.85;;;19.27;;
11911;SDS011;6016;41.928;25.556;2023-11-25T07:55:16;9.40;;;3.72;;
11911;SDS011;6016;41.928;25.556;2023-11-25T07:57:43;4.95;;;2.70;;
11911;SDS011;6016;41.928;25.556;2023-11-25T08:00:12;4.80;;;2.22;;
11911;SDS011;6016;41.928;25.556;2023-11-25T08:02:41;4.72;;;2.20;;
11911;SDS011;6016;41.928;25.556;2023-11-25T08:05:08;5.10;;;1.80;;
11911;SDS011;6016;41.928;25.556;2023-11-25T08:07:36;5.75;;;2.42;;
11911;SDS011;6016;41.928;25.556;2023-11-25T08:10:05;6.78;;;3.20;;
11911;SDS011;6016;41.928;25.556;2023-11-25T08:12:33;6.53;;;2.72;;
11911;SDS011;6016;41.928;25.556;2023-11-25T08:15:00;9.90;;;2.88;;
11911;SDS011;6016;41.928;25.556;2023-11-25T08:17:27;9.07;;;2.83;;
11911;SDS011;6016;41.928;25.556;2023-11-25T08:19:55;7.03;;;2.60;;
11911;SDS011;6016;41.928;25.556;2023-11-25T08:22:22;7.57;;;2.80;;
11911;SDS011;6016;41.928;25.556;2023-11-25T08:24:49;8.27;;;3.28;;
11911;SDS011;6016;41.928;25.556;2023-11-25T08:27:22;8.48;;;3.00;;
11911;SDS011;6016;41.928;25.556;2023-11-25T08:29:49;8.82;;;3.20;;
11911;SDS011;6016;41.928;25.556;2023-11-25T08:32:15;7.32;;;2.70;;
11911;SDS011;6016;41.928;25.556;2023-11-25T08:34:43;9.55;;;2.50;;
11911;SDS011;6016;41.928;25.556;2023-11-25T08:37:10;8.18;;;2.60;;
11911;SDS011;6016;41.928;25.556;2023-11-25T08:39:37;5.95;;;2.28;;
11911;SDS011;6016;41.928;25.556;2023-11-25T08:42:04;4.88;;;2.00;;
11911;SDS011;6016;41.928;25.556;2023-11-25T08:44:35;4.53;;;2.00;;
11911;SDS011;6016;41.928;25.556;2023-11-25T08:47:02;5.43;;;2.03;;
11911;SDS011;6016;41.928;25.556;2023-11-25T08:49:29;6.45;;;2.33;;
11911;SDS011;6016;41.928;25.556;2023-11-25T08:51:57;9.68;;;2.67;;
11911;SDS011;6016;41.928;25.556;2023-11-25T08:54:24;5.68;;;2.63;;
11911;SDS011;6016;41.928;25.556;2023-11-25T08:56:51;5.10;;;2.10;;
11911;SDS011;6016;41.928;25.556;2023-11-25T08:59:19;14.13;;;3.80;;
11911;SDS011;6016;41.928;25.556;2023-11-25T09:01:48;9.90;;;2.70;;
11911;SDS011;6016;41.928;25.556;2023-11-25T09:04:16;8.07;;;3.03;;
11911;SDS011;6016;41.928;25.556;2023-11-25T09:06:44;10.77;;;4.22;;
11911;SDS011;6016;41.928;25.556;2023-11-25T09:09:12;10.07;;;4.78;;
11911;SDS011;6016;41.928;25.556;2023-11-25T09:11:40;9.88;;;4.15;;
11911;SDS011;6016;41.928;25.556;2023-11-25T09:14:08;10.75;;;5.30;;
11911;SDS011;6016;41.928;25.556;2023-11-25T09:16:36;11.18;;;5.13;;
11911;SDS011;6016;41.928;25.556;2023-11-25T09:19:04;13.23;;;7.00;;
11911;SDS011;6016;41.928;25.556;2023-11-25T09:21:31;19.73;;;10.30;;
11911;SDS011;6016;41.928;25.556;2023-11-25T09:23:58;16.60;;;7.47;;
11911;SDS011;6016;41.928;25.556;2023-11-25T09:26:25;19.75;;;11.32;;
11911;SDS011;6016;41.928;25.556;2023-11-25T09:28:52;16.55;;;9.63;;
11911;SDS011;6016;41.928;25.556;2023-11-25T09:31:20;14.77;;;7.75;;
11911;SDS011;6016;41.928;25.556;2023-11-25T09:33:49;19.23;;;10.10;;
11911;SDS011;6016;41.928;25.556;2023-11-25T09:36:18;14.98;;;8.52;;
11911;SDS011;6016;41.928;25.556;2023-11-25T09:38:47;17.85;;;9.20;;
11911;SDS011;6016;41.928;25.556;2023-11-25T09:41:14;23.13;;;11.05;;
11911;SDS011;6016;41.928;25.556;2023-11-25T09:43:41;19.73;;;10.32;;
11911;SDS011;6016;41.928;25.556;2023-11-25T09:46:09;16.75;;;9.48;;
11911;SDS011;6016;41.928;25.556;2023-11-25T09:48:37;17.15;;;9.05;;
11911;SDS011;6016;41.928;25.556;2023-11-25T09:51:04;23.20;;;10.13;;
11911;SDS011;6016;41.928;25.556;2023-11-25T09:53:36;19.60;;;9.60;;
11911;SDS011;6016;41.928;25.556;2023-11-25T09:56:04;19.52;;;9.63;;
11911;SDS011;6016;41.928;25.556;2023-11-25T09:58:33;21.10;;;10.27;;
11911;SDS011;6016;41.928;25.556;2023-11-25T10:01:00;21.08;;;11.18;;
11911;SDS011;6016;41.928;25.556;2023-11-25T10:03:32;24.35;;;11.48;;
11911;SDS011;6016;41.928;25.556;2023-11-25T10:06:00;22.27;;;11.88;;
11911;SDS011;6016;41.928;25.556;2023-11-25T10:08:27;22.83;;;10.88;;
11911;SDS011;6016;41.928;25.556;2023-11-25T10:10:59;22.92;;;10.93;;
11911;SDS011;6016;41.928;25.556;2023-11-25T10:13:31;27.20;;;12.00;;
11911;SDS011;6016;41.928;25.556;2023-11-25T10:15:59;26.15;;;11.93;;
11911;SDS011;6016;41.928;25.556;2023-11-25T10:18:26;27.13;;;12.45;;
11911;SDS011;6016;41.928;25.556;2023-11-25T10:20:54;28.92;;;12.70;;
11911;SDS011;6016;41.928;25.556;2023-11-25T10:23:23;25.15;;;12.82;;
11911;SDS011;6016;41.928;25.556;2023-11-25T10:25:51;27.40;;;11.50;;
11911;SDS011;6016;41.928;25.556;2023-11-25T10:28:20;30.05;;;13.05;;
11911;SDS011;6016;41.928;25.556;2023-11-25T10:30:54;30.42;;;12.43;;
11911;SDS011;6016;41.928;25.556;2023-11-25T10:33:22;30.40;;;12.95;;
11911;SDS011;6016;41.928;25.556;2023-11-25T10:35:49;26.55;;;13.40;;
11911;SDS011;6016;41.928;25.556;2023-11-25T10:38:17;94.32;;;35.50;;
11911;SDS011;6016;41.928;25.556;2023-11-25T10:40:47;26.83;;;11.68;;
11911;SDS011;6016;41.928;25.556;2023-11-25T10:43:15;24.80;;;12.07;;
11911;SDS011;6016;41.928;25.556;2023-11-25T10:45:44;29.98;;;13.98;;
11911;SDS011;6016;41.928;25.556;2023-11-25T10:48:12;19.80;;;9.88;;
11911;SDS011;6016;41.928;25.556;2023-11-25T10:50:40;15.07;;;7.95;;
11911;SDS011;6016;41.928;25.556;2023-11-25T10:53:10;16.30;;;8.13;;
11911;SDS011;6016;41.928;25.556;2023-11-25T10:55:40;19.20;;;11.80;;
11911;SDS011;6016;41.928;25.556;2023-11-25T10:58:09;8.93;;;5.47;;
11911;SDS011;6016;41.928;25.556;2023-11-25T11:00:37;10.43;;;6.97;;
11911;SDS011;6016;41.928;25.556;2023-11-25T11:03:07;18.27;;;10.43;;
11911;SDS011;6016;41.928;25.556;2023-11-25T11:05:38;11.18;;;6.03;;
11911;SDS011;6016;41.928;25.556;2023-11-25T11:08:09;11.18;;;7.10;;
11911;SDS011;6016;41.928;25.556;2023-11-25T11:10:44;10.50;;;5.75;;
11911;SDS011;6016;41.928;25.556;2023-11-25T11:13:20;16.13;;;7.00;;
11911;SDS011;6016;41.928;25.556;2023-11-25T11:18:22;13.02;;;7.07;;
11911;SDS011;6016;41.928;25.556;2023-11-25T11:20:50;19.73;;;12.13;;
11911;SDS011;6016;41.928;25.556;2023-11-25T11:23:19;9.27;;;5.13;;
11911;SDS011;6016;41.928;25.556;2023-11-25T11:25:50;8.90;;;6.10;;
11911;SDS011;6016;41.928;25.556;2023-11-25T11:28:25;16.17;;;8.85;;
11911;SDS011;6016;41.928;25.556;2023-11-25T11:31:08;16.85;;;9.05;;
11911;SDS011;6016;41.928;25.556;2023-11-25T11:34:02;15.85;;;9.30;;
11911;SDS011;6016;41.928;25.556;2023-11-25T11:36:30;9.43;;;4.80;;
11911;SDS011;6016;41.928;25.556;2023-11-25T11:38:58;7.07;;;4.70;;
11911;SDS011;6016;41.928;25.556;2023-11-25T11:41:26;8.18;;;4.18;;
11911;SDS011;6016;41.928;25.556;2023-11-25T11:43:59;5.85;;;3.72;;
11911;SDS011;6016;41.928;25.556;2023-11-25T11:46:27;4.70;;;2.92;;
11911;SDS011;6016;41.928;25.556;2023-11-25T11:48:56;15.93;;;10.77;;
11911;SDS011;6016;41.928;25.556;2023-11-25T11:51:24;8.43;;;4.68;;
11911;SDS011;6016;41.928;25.556;2023-11-25T11:56:59;5.82;;;2.90;;
11911;SDS011;6016;41.928;25.556;2023-11-25T12:02:28;6.18;;;3.20;;
11911;SDS011;6016;41.928;25.556;2023-11-25T12:04:57;5.25;;;3.33;;
11911;SDS011;6016;41.928;25.556;2023-11-25T12:07:25;9.13;;;4.45;;
11911;SDS011;6016;41.928;25.556;2023-11-25T12:09:53;20.88;;;10.73;;
11911;SDS011;6016;41.928;25.556;2023-11-25T12:12:21;12.77;;;5.80;;
11911;SDS011;6016;41.928;25.556;2023-11-25T12:14:48;6.72;;;3.50;;
11911;SDS011;6016;41.928;25.556;2023-11-25T12:17:16;11.30;;;5.85;;
11911;SDS011;6016;41.928;25.556;2023-11-25T12:19:43;5.63;;;3.25;;
11911;SDS011;6016;41.928;25.556;2023-11-25T12:22:11;14.27;;;6.07;;
11911;SDS011;6016;41.928;25.556;2023-11-25T12:24:40;6.80;;;3.28;;
11911;SDS011;6016;41.928;25.556;2023-11-25T12:27:09;7.40;;;3.88;;
11911;SDS011;6016;41.928;25.556;2023-11-25T12:29:37;10.15;;;5.05;;
11911;SDS011;6016;41.928;25.556;2023-11-25T12:32:04;25.23;;;10.40;;
11911;SDS011;6016;41.928;25.556;2023-11-25T12:34:31;7.72;;;4.25;;
11911;SDS011;6016;41.928;25.556;2023-11-25T12:36:58;10.25;;;4.90;;
11911;SDS011;6016;41.928;25.556;2023-11-25T12:39:26;26.23;;;10.07;;
11911;SDS011;6016;41.928;25.556;2023-11-25T12:41:55;9.35;;;5.07;;
11911;SDS011;6016;41.928;25.556;2023-11-25T12:44:22;11.20;;;4.57;;
11911;SDS011;6016;41.928;25.556;2023-11-25T12:46:58;7.68;;;3.58;;
11911;SDS011;6016;41.928;25.556;2023-11-25T12:49:27;4.20;;;2.63;;
11911;SDS011;6016;41.928;25.556;2023-11-25T12:51:54;19.92;;;10.07;;
11911;SDS011;6016;41.928;25.556;2023-11-25T12:54:21;7.85;;;3.63;;
11911;SDS011;6016;41.928;25.556;2023-11-25T12:56:49;10.43;;;5.20;;
11911;SDS011;6016;41.928;25.556;2023-11-25T12:59:22;11.48;;;5.45;;
11911;SDS011;6016;41.928;25.556;2023-11-25T13:01:52;19.02;;;8.65;;
11911;SDS011;6016;41.928;25.556;2023-11-25T13:04:19;41.97;;;18.08;;
11911;SDS011;6016;41.928;25.556;2023-11-25T13:06:46;7.82;;;4.13;;
11911;SDS011;6016;41.928;25.556;2023-11-25T13:09:14;11.60;;;6.90;;
11911;SDS011;6016;41.928;25.556;2023-11-25T13:11:45;10.02;;;5.85;;
11911;SDS011;6016;41.928;25.556;2023-11-25T13:14:13;7.10;;;3.72;;
11911;SDS011;6016;41.928;25.556;2023-11-25T13:16:43;8.02;;;4.03;;
11911;SDS011;6016;41.928;25.556;2023-11-25T13:19:10;30.38;;;10.02;;
11911;SDS011;6016;41.928;25.556;2023-11-25T13:21:37;26.40;;;9.02;;
11911;SDS011;6016;41.928;25.556;2023-11-25T13:24:07;12.00;;;6.40;;
11911;SDS011;6016;41.928;25.556;2023-11-25T13:26:34;7.95;;;3.20;;
11911;SDS011;6016;41.928;25.556;2023-11-25T13:29:03;22.25;;;11.75;;
11911;SDS011;6016;41.928;25.556;2023-11-25T13:31:30;20.23;;;9.57;;
11911;SDS011;6016;41.928;25.556;2023-11-25T13:33:58;7.57;;;4.18;;
11911;SDS011;6016;41.928;25.556;2023-11-25T13:36:25;6.47;;;3.33;;
11911;SDS011;6016;41.928;25.556;2023-11-25T13:38:52;6.55;;;2.60;;
11911;SDS011;6016;41.928;25.556;2023-11-25T13:41:19;7.90;;;4.40;;
11911;SDS011;6016;41.928;25.556;2023-11-25T13:43:46;4.18;;;3.05;;
11911;SDS011;6016;41.928;25.556;2023-11-25T13:46:14;4.35;;;2.10;;
11911;SDS011;6016;41.928;25.556;2023-11-25T13:48:41;11.85;;;5.35;;
11911;SDS011;6016;41.928;25.556;2023-11-25T13:51:09;5.75;;;3.55;;
11911;SDS011;6016;41.928;25.556;2023-11-25T13:53:36;6.88;;;4.90;;
11911;SDS011;6016;41.928;25.556;2023-11-25T13:56:04;12.32;;;7.75;;
11911;SDS011;6016;41.928;25.556;2023-11-25T13:58:33;4.50;;;2.75;;
11911;SDS011;6016;41.928;25.556;2023-11-25T14:01:01;9.85;;;6.75;;
11911;SDS011;6016;41.928;25.556;2023-11-25T14:03:30;21.42;;;9.38;;
11911;SDS011;6016;41.928;25.556;2023-11-25T14:06:01;7.50;;;4.22;;
11911;SDS011;6016;41.928;25.556;2023-11-25T14:08:29;6.90;;;5.15;;
11911;SDS011;6016;41.928;25.556;2023-11-25T14:10:56;6.57;;;3.90;;
11911;SDS011;6016;41.928;25.556;2023-11-25T14:13:23;16.58;;;12.00;;
11911;SDS011;6016;41.928;25.556;2023-11-25T14:15:52;17.95;;;10.65;;
11911;SDS011;6016;41.928;25.556;2023-11-25T14:18:19;10.45;;;6.28;;
11911;SDS011;6016;41.928;25.556;2023-11-25T14:20:46;23.38;;;16.58;;
11911;SDS011;6016;41.928;25.556;2023-11-25T14:23:13;13.80;;;8.55;;
11911;SDS011;6016;41.928;25.556;2023-11-25T14:25:41;10.07;;;6.90;;
11911;SDS011;6016;41.928;25.556;2023-11-25T14:28:08;10.85;;;6.88;;
11911;SDS011;6016;41.928;25.556;2023-11-25T14:30:37;8.30;;;4.82;;
11911;SDS011;6016;41.928;25.556;2023-11-25T14:33:04;9.73;;;6.25;;
11911;SDS011;6016;41.928;25.556;2023-11-25T14:35:31;15.23;;;8.85;;
11911;SDS011;6016;41.928;25.556;2023-11-25T14:37:58;14.13;;;8.77;;
11911;SDS011;6016;41.928;25.556;2023-11-25T14:40:26;25.08;;;15.13;;
11911;SDS011;6016;41.928;25.556;2023-11-25T14:42:55;32.22;;;19.50;;
11911;SDS011;6016;41.928;25.556;2023-11-25T14:45:22;17.83;;;10.40;;
11911;SDS011;6016;41.928;25.556;2023-11-25T14:47:50;10.93;;;5.75;;
11911;SDS011;6016;41.928;25.556;2023-11-25T14:50:17;12.18;;;6.95;;
11911;SDS011;6016;41.928;25.556;2023-11-25T14:52:44;33.15;;;18.58;;
11911;SDS011;6016;41.928;25.556;2023-11-25T14:55:11;19.00;;;7.65;;
11911;SDS011;6016;41.928;25.556;2023-11-25T14:57:38;22.38;;;9.63;;